createdAt,value
2016-02-23T00:00:08.716Z,945.64
2016-02-23T00:01:08.656Z,945.72
2016-02-23T00:02:08.613Z,945.78
2016-02-23T00:03:08.553Z,945.73
2016-02-23T00:04:08.508Z,945.67
2016-02-23T00:05:08.456Z,945.69
2016-02-23T00:06:08.397Z,945.7
2016-02-23T00:07:08.337Z,945.67
2016-02-23T00:08:08.293Z,945.7
2016-02-23T00:09:08.250Z,945.69
2016-02-23T00:10:08.189Z,945.68
2016-02-23T00:11:08.144Z,945.69
2016-02-23T00:12:08.086Z,945.63
2016-02-23T00:13:08.025Z,945.72
2016-02-23T00:14:07.997Z,945.7
2016-02-23T00:15:07.937Z,945.7
2016-02-23T00:16:07.877Z,945.7
2016-02-23T00:17:07.833Z,945.73
2016-02-23T00:18:07.851Z,945.78
2016-02-23T00:19:07.713Z,945.77
2016-02-23T00:20:07.669Z,945.72
2016-02-23T00:21:07.625Z,945.7
2016-02-23T00:22:07.561Z,945.72
2016-02-23T00:23:07.506Z,945.72
2016-02-23T00:24:07.419Z,945.69
2016-02-23T00:25:07.379Z,945.69
2016-02-23T00:26:07.308Z,945.6
2016-02-23T00:27:07.255Z,945.67
2016-02-23T00:28:07.175Z,945.69
2016-02-23T00:29:07.127Z,945.65
2016-02-23T00:30:07.095Z,945.6
2016-02-23T00:31:07.047Z,945.61
2016-02-23T00:32:06.968Z,945.62
2016-02-23T00:33:06.922Z,945.6
2016-02-23T00:34:06.877Z,945.61
2016-02-23T00:35:06.801Z,945.54
2016-02-23T00:36:06.771Z,945.57
2016-02-23T00:37:06.709Z,945.6
2016-02-23T00:38:06.649Z,945.63
2016-02-23T00:39:06.604Z,945.62
2016-02-23T00:40:06.576Z,945.61
2016-02-23T00:41:06.499Z,945.62
2016-02-23T00:42:06.476Z,945.62
2016-02-23T00:43:06.401Z,945.56
2016-02-23T00:44:06.373Z,945.67
2016-02-23T00:45:06.312Z,945.63
2016-02-23T00:46:06.285Z,945.61
2016-02-23T00:47:06.178Z,945.62
2016-02-23T00:48:06.180Z,945.62
2016-02-23T00:49:06.074Z,945.63
2016-02-23T00:50:06.014Z,945.66
2016-02-23T00:51:06.000Z,945.64
2016-02-23T00:52:05.925Z,945.63
2016-02-23T00:53:05.881Z,945.63
2016-02-23T00:54:05.806Z,945.64
2016-02-23T00:55:05.778Z,945.6
2016-02-23T00:56:05.717Z,945.67
2016-02-23T00:57:05.705Z,945.68
2016-02-23T00:58:05.614Z,945.61
2016-02-23T00:59:05.569Z,945.61
2016-02-23T01:00:05.510Z,945.61
2016-02-23T01:01:05.497Z,945.66
2016-02-23T01:02:05.390Z,945.68
2016-02-23T01:03:05.346Z,945.66
2016-02-23T01:04:05.364Z,945.63
2016-02-23T01:05:05.288Z,945.68
2016-02-23T01:06:05.291Z,945.69
2016-02-23T01:07:05.154Z,945.71
2016-02-23T01:08:05.093Z,945.7
2016-02-23T01:09:05.049Z,945.62
2016-02-23T01:10:05.005Z,945.62
2016-02-23T01:11:04.945Z,945.66
2016-02-23T01:12:04.902Z,945.66
2016-02-23T01:13:04.842Z,945.67
2016-02-23T01:14:04.797Z,945.65
2016-02-23T01:15:04.737Z,945.64
2016-02-23T01:16:04.693Z,945.69
2016-02-23T01:17:04.618Z,945.68
2016-02-23T01:18:04.573Z,945.63
2016-02-23T01:19:04.545Z,945.65
2016-02-23T01:20:04.470Z,945.59
2016-02-23T01:21:04.442Z,945.55
2016-02-23T01:22:04.428Z,945.62
2016-02-23T01:23:04.337Z,945.58
2016-02-23T01:24:04.292Z,945.58
2016-02-23T01:25:04.234Z,945.58
2016-02-23T01:26:04.220Z,945.58
2016-02-23T01:27:04.097Z,945.55
2016-02-23T01:28:04.069Z,945.56
2016-02-23T01:29:04.025Z,945.53
2016-02-23T01:30:03.966Z,945.49
2016-02-23T01:31:03.905Z,945.53
2016-02-23T01:32:03.893Z,945.55
2016-02-23T01:33:03.817Z,945.51
2016-02-23T01:34:03.774Z,945.5
2016-02-23T01:35:03.713Z,945.48
2016-02-23T01:36:03.684Z,945.51
2016-02-23T01:37:03.594Z,945.54
2016-02-23T01:38:03.565Z,945.49
2016-02-23T01:39:03.505Z,945.53
2016-02-23T01:40:03.493Z,945.53
2016-02-23T01:41:03.417Z,945.53
2016-02-23T01:42:03.373Z,945.5
2016-02-23T01:43:03.282Z,945.47
2016-02-23T01:44:03.456Z,945.48
2016-02-23T01:45:03.224Z,945.44
2016-02-23T01:46:03.134Z,945.43
2016-02-23T01:47:03.089Z,945.46
2016-02-23T01:48:03.061Z,945.45
2016-02-23T01:49:03.001Z,945.47
2016-02-23T01:50:02.956Z,945.44
2016-02-23T01:51:02.881Z,945.44
2016-02-23T01:52:02.837Z,945.49
2016-02-23T01:53:02.777Z,945.45
2016-02-23T01:54:02.717Z,945.39
2016-02-23T01:55:02.673Z,945.39
2016-02-23T01:56:02.628Z,945.39
2016-02-23T01:57:02.570Z,945.39
2016-02-23T01:58:02.509Z,945.32
2016-02-23T01:59:02.465Z,945.3
2016-02-23T02:00:02.406Z,945.26
2016-02-23T02:01:02.361Z,945.25
2016-02-23T02:02:02.316Z,945.29
2016-02-23T02:03:02.257Z,945.32
2016-02-23T02:04:02.229Z,945.3
2016-02-23T02:05:02.153Z,945.29
2016-02-23T02:06:02.110Z,945.34
2016-02-23T02:07:02.033Z,945.35
2016-02-23T02:08:02.036Z,945.29
2016-02-23T02:09:01.946Z,945.25
2016-02-23T02:10:01.932Z,945.22
2016-02-23T02:11:01.856Z,945.26
2016-02-23T02:12:01.829Z,945.25
2016-02-23T02:13:01.737Z,945.28
2016-02-23T02:14:01.677Z,945.21
2016-02-23T02:15:01.649Z,945.27
2016-02-23T02:16:01.620Z,945.29
2016-02-23T02:17:01.529Z,945.31
2016-02-23T02:18:01.485Z,945.24
2016-02-23T02:19:01.440Z,945.28
2016-02-23T02:20:01.397Z,945.26
2016-02-23T02:21:01.321Z,945.26
2016-02-23T02:22:01.293Z,945.24
2016-02-23T02:23:01.264Z,945.26
2016-02-23T02:24:01.173Z,945.24
2016-02-23T02:25:01.129Z,945.28
2016-02-23T02:26:01.069Z,945.27
2016-02-23T02:27:01.009Z,945.25
2016-02-23T02:28:00.965Z,945.27
2016-02-23T02:29:00.905Z,945.33
2016-02-23T02:30:00.866Z,945.31
2016-02-23T02:31:00.806Z,945.34
2016-02-23T02:32:00.746Z,945.27
2016-02-23T02:33:00.686Z,945.21
2016-02-23T02:34:00.658Z,945.25
2016-02-23T02:35:00.598Z,945.26
2016-02-23T02:36:00.538Z,945.25
2016-02-23T02:37:00.479Z,945.31
2016-02-23T02:38:00.481Z,945.34
2016-02-23T02:39:00.407Z,945.32
2016-02-23T02:40:00.330Z,945.34
2016-02-23T02:41:00.270Z,945.34
2016-02-23T02:42:00.227Z,945.35
2016-02-23T02:43:00.213Z,945.39
2016-02-23T02:44:00.122Z,945.32
2016-02-23T02:45:00.078Z,945.35
2016-02-23T02:46:00.018Z,945.37
2016-02-23T02:46:59.958Z,945.38
2016-02-23T02:47:59.931Z,945.33
2016-02-23T02:48:59.839Z,945.31
2016-02-23T02:49:59.794Z,945.3
2016-02-23T02:50:59.782Z,945.27
2016-02-23T02:51:59.691Z,945.28
2016-02-23T02:52:59.630Z,945.17
2016-02-23T02:53:59.587Z,945.29
2016-02-23T02:54:59.542Z,945.21
2016-02-23T02:55:59.483Z,945.21
2016-02-23T02:56:59.408Z,945.28
2016-02-23T02:57:59.378Z,945.16
2016-02-23T02:58:59.319Z,945.37
2016-02-23T02:59:59.291Z,945.13
2016-02-23T03:00:59.199Z,945.29
2016-02-23T03:01:59.186Z,945.19
2016-02-23T03:02:59.142Z,945.3
2016-02-23T03:03:59.052Z,945.14
2016-02-23T03:04:59.007Z,945.09
2016-02-23T03:05:58.963Z,945.05
2016-02-23T03:06:58.903Z,945.09
2016-02-23T03:07:58.843Z,945.1
2016-02-23T03:08:58.783Z,945.1
2016-02-23T03:09:58.754Z,945.06
2016-02-23T03:10:58.695Z,945.08
2016-02-23T03:11:58.681Z,945.12
2016-02-23T03:12:58.576Z,945.07
2016-02-23T03:13:58.515Z,945.13
2016-02-23T03:14:58.471Z,945.05
2016-02-23T03:15:58.427Z,944.99
2016-02-23T03:16:58.414Z,945.04
2016-02-23T03:17:58.307Z,945.09
2016-02-23T03:18:58.264Z,944.94
2016-02-23T03:19:58.203Z,944.97
2016-02-23T03:20:58.175Z,944.95
2016-02-23T03:21:58.147Z,944.97
2016-02-23T03:22:58.039Z,944.92
2016-02-23T03:23:57.996Z,944.87
2016-02-23T03:24:57.967Z,944.94
2016-02-23T03:25:57.922Z,944.97
2016-02-23T03:26:57.879Z,944.92
2016-02-23T03:27:57.788Z,944.88
2016-02-23T03:28:57.712Z,944.89
2016-02-23T03:29:57.668Z,944.91
2016-02-23T03:30:57.624Z,944.87
2016-02-23T03:31:57.579Z,944.81
2016-02-23T03:32:57.505Z,944.93
2016-02-23T03:33:57.444Z,944.82
2016-02-23T03:34:57.399Z,944.87
2016-02-23T03:35:57.388Z,944.79
2016-02-23T03:36:57.280Z,944.74
2016-02-23T03:37:57.236Z,944.75
2016-02-23T03:38:57.223Z,944.78
2016-02-23T03:39:57.132Z,944.75
2016-02-23T03:40:57.088Z,944.72
2016-02-23T03:41:57.076Z,944.71
2016-02-23T03:42:57.015Z,944.65
2016-02-23T03:43:56.924Z,944.65
2016-02-23T03:44:56.864Z,944.65
2016-02-23T03:45:56.821Z,944.64
2016-02-23T03:46:56.792Z,944.68
2016-02-23T03:47:56.716Z,944.78
2016-02-23T03:48:56.688Z,944.79
2016-02-23T03:49:56.612Z,944.74
2016-02-23T03:50:56.600Z,944.85
2016-02-23T03:51:56.493Z,944.84
2016-02-23T03:52:56.464Z,944.83
2016-02-23T03:53:56.436Z,944.86
2016-02-23T03:54:56.376Z,944.79
2016-02-23T03:55:56.269Z,944.79
2016-02-23T03:56:56.240Z,944.73
2016-02-23T03:57:56.181Z,944.75
2016-02-23T03:58:56.121Z,944.73
2016-02-23T03:59:56.139Z,944.76
2016-02-23T04:00:56.017Z,944.73
2016-02-23T04:01:56.019Z,944.83
2016-02-23T04:02:55.913Z,944.81
2016-02-23T04:03:55.869Z,944.8
2016-02-23T04:04:55.855Z,944.8
2016-02-23T04:05:55.796Z,944.94
2016-02-23T04:06:55.674Z,944.86
2016-02-23T04:07:55.629Z,944.91
2016-02-23T04:08:55.569Z,944.89
2016-02-23T04:09:55.541Z,944.9
2016-02-23T04:10:55.513Z,944.92
2016-02-23T04:11:55.437Z,944.87
2016-02-23T04:12:55.440Z,944.94
2016-02-23T04:13:55.318Z,944.91
2016-02-23T04:14:55.273Z,944.9
2016-02-23T04:15:55.229Z,944.91
2016-02-23T04:16:55.170Z,944.91
2016-02-23T04:17:55.109Z,944.93
2016-02-23T04:18:55.065Z,944.92
2016-02-23T04:19:55.006Z,944.89
2016-02-23T04:20:54.961Z,944.91
2016-02-23T04:21:54.901Z,944.83
2016-02-23T04:22:54.842Z,944.89
2016-02-23T04:23:54.797Z,944.89
2016-02-23T04:24:54.737Z,944.87
2016-02-23T04:25:54.694Z,944.8
2016-02-23T04:26:54.649Z,944.89
2016-02-23T04:27:54.575Z,944.78
2016-02-23T04:28:54.530Z,944.82
2016-02-23T04:29:54.469Z,944.82
2016-02-23T04:30:54.458Z,944.84
2016-02-23T04:31:54.381Z,944.85
2016-02-23T04:32:54.384Z,944.81
2016-02-23T04:33:54.262Z,944.78
2016-02-23T04:34:54.202Z,944.81
2016-02-23T04:35:54.158Z,944.79
2016-02-23T04:36:54.099Z,944.82
2016-02-23T04:37:54.054Z,944.78
2016-02-23T04:38:53.993Z,944.77
2016-02-23T04:39:53.949Z,944.83
2016-02-23T04:40:53.890Z,944.75
2016-02-23T04:41:53.830Z,944.83
2016-02-23T04:42:53.770Z,944.79
2016-02-23T04:43:53.710Z,944.8
2016-02-23T04:44:53.682Z,944.83
2016-02-23T04:45:53.623Z,944.81
2016-02-23T04:46:53.563Z,944.79
2016-02-23T04:47:53.518Z,944.79
2016-02-23T04:48:53.473Z,944.76
2016-02-23T04:49:53.415Z,944.83
2016-02-23T04:50:53.370Z,944.82
2016-02-23T04:51:53.309Z,944.88
2016-02-23T04:52:53.267Z,944.81
2016-02-23T04:53:53.206Z,944.82
2016-02-23T04:54:53.162Z,944.83
2016-02-23T04:55:53.103Z,944.8
2016-02-23T04:56:53.042Z,944.83
2016-02-23T04:57:52.998Z,944.78
2016-02-23T04:58:52.939Z,944.83
2016-02-23T04:59:52.910Z,944.87
2016-02-23T05:00:52.819Z,944.9
2016-02-23T05:01:52.774Z,944.86
2016-02-23T05:02:52.747Z,944.83
2016-02-23T05:03:52.702Z,944.81
2016-02-23T05:04:52.627Z,944.8
2016-02-23T05:05:52.551Z,944.84
2016-02-23T05:06:52.522Z,944.84
2016-02-23T05:07:52.463Z,944.8
2016-02-23T05:08:52.450Z,944.77
2016-02-23T05:09:52.343Z,944.77
2016-02-23T05:10:52.298Z,944.71
2016-02-23T05:11:52.255Z,944.71
2016-02-23T05:12:52.179Z,944.65
2016-02-23T05:13:52.151Z,944.64
2016-02-23T05:14:52.091Z,944.55
2016-02-23T05:15:52.046Z,944.6
2016-02-23T05:16:51.971Z,944.58
2016-02-23T05:17:51.927Z,944.64
2016-02-23T05:18:51.898Z,944.48
2016-02-23T05:19:51.823Z,944.61
2016-02-23T05:20:51.779Z,944.49
2016-02-23T05:21:51.719Z,944.49
2016-02-23T05:22:51.659Z,944.6
2016-02-23T05:23:51.615Z,944.58
2016-02-23T05:24:51.571Z,944.57
2016-02-23T05:25:51.495Z,944.54
2016-02-23T05:26:51.467Z,944.5
2016-02-23T05:27:51.406Z,944.47
2016-02-23T05:28:51.347Z,944.55
2016-02-23T05:29:51.303Z,944.5
2016-02-23T05:30:51.244Z,944.48
2016-02-23T05:31:51.199Z,944.47
2016-02-23T05:32:51.124Z,944.49
2016-02-23T05:33:51.080Z,944.49
2016-02-23T05:34:51.035Z,944.39
2016-02-23T05:35:50.960Z,944.49
2016-02-23T05:36:50.931Z,944.43
2016-02-23T05:37:50.872Z,944.43
2016-02-23T05:38:50.811Z,944.39
2016-02-23T05:39:50.768Z,944.42
2016-02-23T05:40:50.707Z,944.4
2016-02-23T05:41:50.664Z,944.35
2016-02-23T05:42:50.604Z,944.35
2016-02-23T05:43:50.575Z,944.32
2016-02-23T05:44:50.499Z,944.32
2016-02-23T05:45:50.440Z,944.4
2016-02-23T05:46:50.380Z,944.34
2016-02-23T05:47:50.335Z,944.32
2016-02-23T05:48:50.276Z,944.33
2016-02-23T05:49:50.201Z,944.35
2016-02-23T05:50:50.172Z,944.37
2016-02-23T05:51:50.113Z,944.37
2016-02-23T05:52:50.037Z,944.32
2016-02-23T05:53:49.992Z,944.35
2016-02-23T05:54:49.948Z,944.26
2016-02-23T05:55:49.889Z,944.27
2016-02-23T05:56:49.828Z,944.25
2016-02-23T05:57:49.784Z,944.15
2016-02-23T05:58:49.725Z,944.21
2016-02-23T05:59:49.664Z,944.18
2016-02-23T06:00:49.621Z,944.2
2016-02-23T06:01:49.577Z,944.15
2016-02-23T06:02:49.547Z,944.15
2016-02-23T06:03:49.457Z,944.15
2016-02-23T06:04:49.428Z,944.14
2016-02-23T06:05:49.353Z,944.09
2016-02-23T06:06:49.371Z,944.16
2016-02-23T06:07:49.249Z,944.18
2016-02-23T06:08:49.189Z,944.2
2016-02-23T06:09:49.161Z,944.2
2016-02-23T06:10:49.085Z,944.17
2016-02-23T06:11:49.041Z,944.29
2016-02-23T06:12:48.997Z,944.26
2016-02-23T06:13:48.937Z,944.21
2016-02-23T06:14:48.893Z,944.2
2016-02-23T06:15:48.849Z,944.22
2016-02-23T06:16:48.882Z,944.2
2016-02-23T06:17:48.730Z,944.17
2016-02-23T06:18:48.685Z,944.13
2016-02-23T06:19:48.626Z,944.1
2016-02-23T06:20:48.565Z,944.16
2016-02-23T06:21:48.521Z,944.16
2016-02-23T06:22:48.476Z,944.12
2016-02-23T06:23:48.401Z,944.16
2016-02-23T06:24:48.451Z,944.16
2016-02-23T06:25:48.312Z,944.14
2016-02-23T06:26:48.254Z,944.22
2016-02-23T06:27:48.193Z,944.18
2016-02-23T06:28:48.134Z,944.2
2016-02-23T06:29:48.073Z,944.25
2016-02-23T06:30:48.045Z,944.13
2016-02-23T06:31:47.970Z,944.32
2016-02-23T06:32:47.910Z,944.22
2016-02-23T06:33:47.866Z,944.18
2016-02-23T06:34:47.837Z,944.13
2016-02-23T06:35:47.762Z,944.16
2016-02-23T06:36:47.687Z,944.14
2016-02-23T06:37:47.627Z,944.21
2016-02-23T06:38:47.597Z,944.17
2016-02-23T06:39:47.585Z,944.23
2016-02-23T06:40:47.478Z,944.12
2016-02-23T06:41:47.450Z,944.09
2016-02-23T06:42:47.358Z,944.15
2016-02-23T06:43:47.299Z,944.17
2016-02-23T06:44:47.271Z,944.1
2016-02-23T06:45:47.210Z,944.14
2016-02-23T06:46:47.151Z,944.16
2016-02-23T06:47:47.107Z,944.21
2016-02-23T06:48:47.046Z,944.12
2016-02-23T06:49:47.002Z,944.13
2016-02-23T06:50:46.943Z,944.14
2016-02-23T06:51:46.882Z,944.16
2016-02-23T06:52:46.932Z,944.23
2016-02-23T06:53:46.763Z,944.22
2016-02-23T06:54:46.734Z,944.26
2016-02-23T06:55:46.676Z,944.2
2016-02-23T06:56:46.631Z,944.2
2016-02-23T06:57:46.852Z,944.21
2016-02-23T06:58:46.590Z,944.15
2016-02-23T06:59:46.576Z,944.18
2016-02-23T07:00:46.406Z,944.17
2016-02-23T07:01:46.363Z,944.18
2016-02-23T07:02:46.303Z,944.18
2016-02-23T07:03:46.259Z,944.19
2016-02-23T07:04:46.200Z,944.21
2016-02-23T07:05:46.139Z,944.28
2016-02-23T07:06:46.064Z,944.34
2016-02-23T07:07:46.082Z,944.2
2016-02-23T07:08:45.976Z,944.28
2016-02-23T07:09:46.338Z,944.19
2016-02-23T07:10:45.871Z,944.21
2016-02-23T07:11:45.858Z,944.22
2016-02-23T07:12:45.768Z,944.2
2016-02-23T07:13:45.864Z,944.26
2016-02-23T07:14:45.632Z,944.3
2016-02-23T07:15:45.604Z,944.27
2016-02-23T07:16:45.544Z,944.25
2016-02-23T07:17:45.484Z,944.26
2016-02-23T07:18:45.534Z,944.28
2016-02-23T07:19:45.380Z,944.25
2016-02-23T07:20:45.335Z,944.3
2016-02-23T07:21:45.277Z,944.28
2016-02-23T07:22:45.201Z,944.25
2016-02-23T07:23:45.172Z,944.25
2016-02-23T07:24:45.112Z,944.31
2016-02-23T07:25:45.053Z,944.27
2016-02-23T07:26:45.008Z,944.25
2016-02-23T07:27:44.948Z,944.2
2016-02-23T07:28:45.014Z,944.23
2016-02-23T07:29:44.860Z,944.17
2016-02-23T07:30:44.785Z,944.21
2016-02-23T07:31:44.726Z,944.19
2016-02-23T07:32:44.681Z,944.22
2016-02-23T07:33:44.620Z,944.23
2016-02-23T07:34:44.578Z,944.28
2016-02-23T07:35:44.533Z,944.28
2016-02-23T07:36:44.458Z,944.25
2016-02-23T07:37:44.428Z,944.25
2016-02-23T07:38:44.369Z,944.21
2016-02-23T07:39:44.309Z,944.25
2016-02-23T07:40:44.297Z,944.33
2016-02-23T07:41:44.252Z,944.34
2016-02-23T07:42:44.161Z,944.35
2016-02-23T07:43:44.083Z,944.34
2016-02-23T07:44:44.117Z,944.27
2016-02-23T07:45:43.994Z,944.37
2016-02-23T07:46:44.027Z,944.26
2016-02-23T07:47:43.937Z,944.37
2016-02-23T07:48:43.831Z,944.25
2016-02-23T07:49:43.974Z,944.27
2016-02-23T07:50:43.758Z,944.2
2016-02-23T07:51:43.651Z,944.23
2016-02-23T07:52:43.654Z,944.26
2016-02-23T07:53:43.563Z,944.32
2016-02-23T07:54:43.534Z,944.25
2016-02-23T07:55:43.459Z,944.25
2016-02-23T07:56:43.384Z,944.33
2016-02-23T07:57:43.355Z,944.3
2016-02-23T07:58:43.373Z,944.24
2016-02-23T07:59:43.548Z,944.3
2016-02-23T08:00:43.176Z,944.23
2016-02-23T08:01:43.115Z,944.25
2016-02-23T08:02:43.071Z,944.36
2016-02-23T08:03:43.028Z,944.31
2016-02-23T08:04:42.951Z,944.24
2016-02-23T08:05:42.907Z,944.26
2016-02-23T08:06:42.863Z,944.23
2016-02-23T08:07:42.819Z,944.32
2016-02-23T08:08:42.728Z,944.23
2016-02-23T08:09:42.700Z,944.24
2016-02-23T08:10:42.624Z,944.28
2016-02-23T08:11:42.580Z,944.22
2016-02-23T08:12:42.520Z,944.27
2016-02-23T08:13:42.475Z,944.13
2016-02-23T08:14:42.432Z,944.18
2016-02-23T08:15:42.371Z,944.28
2016-02-23T08:16:42.312Z,944.15
2016-02-23T08:17:42.268Z,944.25
2016-02-23T08:18:42.208Z,944.29
2016-02-23T08:19:42.133Z,944.14
2016-02-23T08:20:42.198Z,944.25
2016-02-23T08:21:42.029Z,944.22
2016-02-23T08:22:42.000Z,944.16
2016-02-23T08:23:41.924Z,944.17
2016-02-23T08:24:41.912Z,944.2
2016-02-23T08:25:41.821Z,944.1
2016-02-23T08:26:41.776Z,944.12
2016-02-23T08:27:41.732Z,944.16
2016-02-23T08:28:41.672Z,944.18
2016-02-23T08:29:41.598Z,944.21
2016-02-23T08:30:41.553Z,944.24
2016-02-23T08:31:41.509Z,944.17
2016-02-23T08:32:41.448Z,944.28
2016-02-23T08:33:41.374Z,944.31
2016-02-23T08:34:41.345Z,944.32
2016-02-23T08:35:41.284Z,944.25
2016-02-23T08:36:41.226Z,944.12
2016-02-23T08:37:41.181Z,944.21
2016-02-23T08:38:41.122Z,944.16
2016-02-23T08:39:41.077Z,944.28
2016-02-23T08:40:41.017Z,944.18
2016-02-23T08:41:40.958Z,944.31
2016-02-23T08:42:40.898Z,944.24
2016-02-23T08:43:40.838Z,944.29
2016-02-23T08:44:40.809Z,944.29
2016-02-23T08:45:40.750Z,944.32
2016-02-23T08:46:40.705Z,944.31
2016-02-23T08:47:40.630Z,944.34
2016-02-23T08:48:40.617Z,944.44
2016-02-23T08:49:40.541Z,944.35
2016-02-23T08:50:40.482Z,944.48
2016-02-23T08:51:40.421Z,944.32
2016-02-23T08:52:40.377Z,944.29
2016-02-23T08:53:40.349Z,944.33
2016-02-23T08:54:40.274Z,944.26
2016-02-23T08:55:40.198Z,944.32
2016-02-23T08:56:40.170Z,944.34
2016-02-23T08:57:40.110Z,944.42
2016-02-23T08:58:40.050Z,944.41
2016-02-23T08:59:40.006Z,944.35
2016-02-23T09:00:40.087Z,944.34
2016-02-23T09:01:39.891Z,944.4
2016-02-23T09:02:39.815Z,944.36
2016-02-23T09:03:39.772Z,944.33
2016-02-23T09:04:39.712Z,944.36
2016-02-23T09:05:39.750Z,944.44
2016-02-23T09:06:39.613Z,944.39
2016-02-23T09:07:39.537Z,944.31
2016-02-23T09:08:39.494Z,944.43
2016-02-23T09:09:39.433Z,944.3
2016-02-23T09:10:39.545Z,944.43
2016-02-23T09:11:39.345Z,944.35
2016-02-23T09:12:39.286Z,944.45
2016-02-23T09:13:39.303Z,944.38
2016-02-23T09:14:39.181Z,944.34
2016-02-23T09:15:39.138Z,944.4
2016-02-23T09:16:39.077Z,944.34
2016-02-23T09:17:39.002Z,944.42
2016-02-23T09:18:38.958Z,944.42
2016-02-23T09:19:38.913Z,944.41
2016-02-23T09:20:38.854Z,944.51
2016-02-23T09:21:38.919Z,944.46
2016-02-23T09:22:38.734Z,944.36
2016-02-23T09:23:38.690Z,944.33
2016-02-23T09:24:38.630Z,944.44
2016-02-23T09:25:38.649Z,944.44
2016-02-23T09:26:38.526Z,944.42
2016-02-23T09:27:38.482Z,944.41
2016-02-23T09:28:38.417Z,944.2
2016-02-23T09:29:38.360Z,944.31
2016-02-23T09:30:38.303Z,944.39
2016-02-23T09:31:38.215Z,944.45
2016-02-23T09:32:38.158Z,944.5
2016-02-23T09:33:38.089Z,944.48
2016-02-23T09:34:38.025Z,944.49
2016-02-23T09:35:37.976Z,944.41
2016-02-23T09:36:37.879Z,944.48
2016-02-23T09:37:37.847Z,944.48
2016-02-23T09:38:37.783Z,944.36
2016-02-23T09:39:37.722Z,944.57
2016-02-23T09:40:37.676Z,944.64
2016-02-23T09:41:37.614Z,944.42
2016-02-23T09:42:37.569Z,944.46
2016-02-23T09:43:37.492Z,944.51
2016-02-23T09:44:37.431Z,944.48
2016-02-23T09:45:37.403Z,944.5
2016-02-23T09:46:37.327Z,944.47
2016-02-23T09:47:37.282Z,944.49
2016-02-23T09:48:37.221Z,944.51
2016-02-23T09:49:37.162Z,944.36
2016-02-23T09:50:37.117Z,944.42
2016-02-23T09:51:37.056Z,944.42
2016-02-23T09:52:37.013Z,944.52
2016-02-23T09:53:37.061Z,944.42
2016-02-23T09:54:36.893Z,944.47
2016-02-23T09:55:36.833Z,944.45
2016-02-23T09:56:36.773Z,944.45
2016-02-23T09:57:36.713Z,944.56
2016-02-23T09:58:36.669Z,944.48
2016-02-23T09:59:36.749Z,944.49
2016-02-23T10:00:36.565Z,944.44
2016-02-23T10:01:36.537Z,944.39
2016-02-23T10:02:36.540Z,944.42
2016-02-23T10:03:36.385Z,944.43
2016-02-23T10:04:36.357Z,944.43
2016-02-23T10:05:36.298Z,944.4
2016-02-23T10:06:36.221Z,944.31
2016-02-23T10:07:36.178Z,944.29
2016-02-23T10:08:36.134Z,944.43
2016-02-23T10:09:36.073Z,944.47
2016-02-23T10:10:36.014Z,944.31
2016-02-23T10:11:35.954Z,944.38
2016-02-23T10:12:35.894Z,944.32
2016-02-23T10:13:35.850Z,944.27
2016-02-23T10:14:35.900Z,944.21
2016-02-23T10:15:35.887Z,944.29
2016-02-23T10:16:35.686Z,944.36
2016-02-23T10:17:35.642Z,944.26
2016-02-23T10:18:35.583Z,944.38
2016-02-23T10:19:35.522Z,944.31
2016-02-23T10:20:35.556Z,944.36
2016-02-23T10:21:35.433Z,944.39
2016-02-23T10:22:35.375Z,944.45
2016-02-23T10:23:35.392Z,944.42
2016-02-23T10:24:35.255Z,944.38
2016-02-23T10:25:35.210Z,944.43
2016-02-23T10:26:35.150Z,944.42
2016-02-23T10:27:35.091Z,944.4
2016-02-23T10:28:35.062Z,944.38
2016-02-23T10:29:34.971Z,944.45
2016-02-23T10:30:35.005Z,944.4
2016-02-23T10:31:34.882Z,944.49
2016-02-23T10:32:34.979Z,944.46
2016-02-23T10:33:35.076Z,944.51
2016-02-23T10:34:34.751Z,944.39
2016-02-23T10:35:34.674Z,944.35
2016-02-23T10:36:34.615Z,944.49
2016-02-23T10:37:34.555Z,944.42
2016-02-23T10:38:34.527Z,944.38
2016-02-23T10:39:34.467Z,944.43
2016-02-23T10:40:34.423Z,944.31
2016-02-23T10:41:34.332Z,944.42
2016-02-23T10:42:34.287Z,944.47
2016-02-23T10:43:34.259Z,944.42
2016-02-23T10:44:34.167Z,944.43
2016-02-23T10:45:34.123Z,944.46
2016-02-23T10:46:34.064Z,944.48
2016-02-23T10:47:34.020Z,944.44
2016-02-23T10:48:33.959Z,944.43
2016-02-23T10:49:33.916Z,944.43
2016-02-23T10:50:33.856Z,944.51
2016-02-23T10:51:33.796Z,944.4
2016-02-23T10:52:33.736Z,944.34
2016-02-23T10:53:33.817Z,944.5
2016-02-23T10:54:33.663Z,944.3
2016-02-23T10:55:33.588Z,944.37
2016-02-23T10:56:33.528Z,944.28
2016-02-23T10:57:33.469Z,944.38
2016-02-23T10:58:33.456Z,944.36
2016-02-23T10:59:33.364Z,944.31
2016-02-23T11:00:33.320Z,944.36
2016-02-23T11:01:33.261Z,944.37
2016-02-23T11:02:33.201Z,944.29
2016-02-23T11:03:33.140Z,944.26
2016-02-23T11:04:33.081Z,944.28
2016-02-23T11:05:33.037Z,944.26
2016-02-23T11:06:33.290Z,944.21
2016-02-23T11:07:33.011Z,944.33
2016-02-23T11:08:32.888Z,944.3
2016-02-23T11:09:32.813Z,944.2
2016-02-23T11:10:32.769Z,944.24
2016-02-23T11:11:32.694Z,944.2
2016-02-23T11:12:32.665Z,944.23
2016-02-23T11:13:32.637Z,944.04
2016-02-23T11:14:32.545Z,944.12
2016-02-23T11:15:32.486Z,944.13
2016-02-23T11:16:32.425Z,944.1
2016-02-23T11:17:32.366Z,944.12
2016-02-23T11:18:32.306Z,944.11
2016-02-23T11:19:32.262Z,944.17
2016-02-23T11:20:32.217Z,944.15
2016-02-23T11:21:32.158Z,944.17
2016-02-23T11:22:32.114Z,944.12
2016-02-23T11:23:32.053Z,944.14
2016-02-23T11:24:32.010Z,944.16
2016-02-23T11:25:32.013Z,944.14
2016-02-23T11:26:31.875Z,944.14
2016-02-23T11:27:31.830Z,944.07
2016-02-23T11:28:31.864Z,944.11
2016-02-23T11:29:31.836Z,944.04
2016-02-23T11:30:31.682Z,944.04
2016-02-23T11:31:31.623Z,944.05
2016-02-23T11:32:31.594Z,944.02
2016-02-23T11:33:31.519Z,944.08
2016-02-23T11:34:31.458Z,944.06
2016-02-23T11:35:31.383Z,944.04
2016-02-23T11:36:31.354Z,944.01
2016-02-23T11:37:31.296Z,944.02
2016-02-23T11:38:31.251Z,944
2016-02-23T11:39:31.191Z,943.95
2016-02-23T11:40:31.146Z,943.97
2016-02-23T11:41:31.087Z,943.96
2016-02-23T11:42:31.198Z,943.98
2016-02-23T11:43:30.982Z,943.92
2016-02-23T11:44:30.924Z,943.9
2016-02-23T11:45:30.879Z,943.94
2016-02-23T11:46:30.820Z,943.96
2016-02-23T11:47:30.775Z,943.88
2016-02-23T11:48:30.731Z,943.9
2016-02-23T11:49:30.686Z,943.85
2016-02-23T11:50:30.658Z,943.84
2016-02-23T11:51:30.550Z,943.85
2016-02-23T11:52:30.586Z,943.79
2016-02-23T11:53:30.449Z,943.78
2016-02-23T11:54:30.389Z,943.77
2016-02-23T11:55:30.331Z,943.8
2016-02-23T11:56:30.926Z,943.78
2016-02-23T11:57:30.282Z,943.73
2016-02-23T11:58:30.191Z,943.67
2016-02-23T11:59:30.115Z,943.74
2016-02-23T12:00:30.196Z,943.68
2016-02-23T12:01:30.309Z,943.64
2016-02-23T12:02:30.015Z,943.75
2016-02-23T12:03:30.033Z,943.7
2016-02-23T12:04:29.942Z,943.67
2016-02-23T12:05:29.804Z,943.64
2016-02-23T12:06:29.892Z,943.62
2016-02-23T12:07:29.702Z,943.59
2016-02-23T12:08:29.658Z,943.55
2016-02-23T12:09:29.597Z,943.57
2016-02-23T12:10:29.538Z,943.54
2016-02-23T12:11:29.493Z,943.62
2016-02-23T12:12:29.433Z,943.48
2016-02-23T12:13:29.374Z,943.45
2016-02-23T12:14:29.345Z,943.45
2016-02-23T12:15:29.285Z,943.46
2016-02-23T12:16:29.226Z,943.51
2016-02-23T12:17:29.150Z,943.49
2016-02-23T12:18:29.200Z,943.49
2016-02-23T12:19:29.063Z,943.51
2016-02-23T12:20:29.080Z,943.4
2016-02-23T12:21:28.958Z,943.38
2016-02-23T12:22:28.945Z,943.31
2016-02-23T12:23:28.823Z,943.35
2016-02-23T12:24:28.872Z,943.31
2016-02-23T12:25:28.719Z,943.3
2016-02-23T12:26:28.691Z,943.44
2016-02-23T12:27:28.615Z,943.33
2016-02-23T12:28:28.587Z,943.34
2016-02-23T12:29:28.511Z,943.32
2016-02-23T12:30:28.467Z,943.23